sensor_id;sensor_type;location;lat;lon;timestamp;pressure;altitude;pressure_sealevel;temperature;humidity
2178;BME280;1095;50.992;6.798;2022-09-25T00:01:42;100663.03;;;13.05;100.00
2178;BME280;1095;50.992;6.798;2022-09-25T00:04:09;100673.88;;;13.02;100.00
2178;BME280;1095;50.992;6.798;2022-09-25T00:06:36;100669.78;;;13.00;100.00
2178;BME280;1095;50.992;6.798;2022-09-25T00:09:02;100668.78;;;13.01;100.00
2178;BME280;1095;50.992;6.798;2022-09-25T00:11:31;100665.81;;;13.04;100.00
2178;BME280;1095;50.992;6.798;2022-09-25T00:14:00;100674.00;;;13.09;100.00
2178;BME280;1095;50.992;6.798;2022-09-25T00:16:29;100678.28;;;13.10;100.00
2178;BME280;1095;50.992;6.798;2022-09-25T00:18:57;100673.69;;;13.04;100.00
2178;BME280;1095;50.992;6.798;2022-09-25T00:21:42;100667.47;;;13.05;100.00
2178;BME280;1095;50.992;6.798;2022-09-25T00:24:10;100672.06;;;13.03;100.00
2178;BME280;1095;50.992;6.798;2022-09-25T00:26:39;100665.47;;;13.07;100.00
2178;BME280;1095;50.992;6.798;2022-09-25T00:29:07;100667.94;;;13.08;100.00
2178;BME280;1095;50.992;6.798;2022-09-25T00:31:36;100662.50;;;13.10;100.00
2178;BME280;1095;50.992;6.798;2022-09-25T00:34:04;100651.69;;;13.05;100.00
2178;BME280;1095;50.992;6.798;2022-09-25T00:36:31;100664.16;;;13.11;100.00
2178;BME280;1095;50.992;6.798;2022-09-25T00:38:58;100661.34;;;13.12;100.00
2178;BME280;1095;50.992;6.798;2022-09-25T00:41:26;100670.56;;;13.16;100.00
2178;BME280;1095;50.992;6.798;2022-09-25T00:43:57;100662.00;;;13.14;100.00
2178;BME280;1095;50.992;6.798;2022-09-25T00:46:26;100661.88;;;13.16;100.00
2178;BME280;1095;50.992;6.798;2022-09-25T00:48:58;100671.47;;;13.23;100.00
2178;BME280;1095;50.992;6.798;2022-09-25T00:51:30;100670.50;;;13.24;100.00
2178;BME280;1095;50.992;6.798;2022-09-25T00:54:00;100664.25;;;13.25;100.00
2178;BME280;1095;50.992;6.798;2022-09-25T00:56:34;100667.88;;;13.24;100.00
2178;BME280;1095;50.992;6.798;2022-09-25T00:59:02;100665.78;;;13.20;100.00
2178;BME280;1095;50.992;6.798;2022-09-25T01:01:29;100670.69;;;13.23;100.00
2178;BME280;1095;50.992;6.798;2022-09-25T01:03:58;100673.13;;;13.24;100.00
2178;BME280;1095;50.992;6.798;2022-09-25T01:06:26;100672.31;;;13.24;100.00
2178;BME280;1095;50.992;6.798;2022-09-25T01:08:53;100663.44;;;13.25;100.00
2178;BME280;1095;50.992;6.798;2022-09-25T01:11:21;100669.00;;;13.30;100.00
2178;BME280;1095;50.992;6.798;2022-09-25T01:13:47;100668.34;;;13.28;100.00
2178;BME280;1095;50.992;6.798;2022-09-25T01:16:19;100677.03;;;13.28;100.00
2178;BME280;1095;50.992;6.798;2022-09-25T01:19:00;100669.97;;;13.29;100.00
2178;BME280;1095;50.992;6.798;2022-09-25T01:21:35;100675.25;;;13.29;100.00
2178;BME280;1095;50.992;6.798;2022-09-25T01:24:13;100671.97;;;13.27;100.00
2178;BME280;1095;50.992;6.798;2022-09-25T01:27:05;100663.09;;;13.28;100.00
2178;BME280;1095;50.992;6.798;2022-09-25T01:29:39;100665.44;;;13.23;100.00
2178;BME280;1095;50.992;6.798;2022-09-25T01:32:13;100667.59;;;13.19;100.00
2178;BME280;1095;50.992;6.798;2022-09-25T01:34:49;100670.41;;;13.18;100.00
2178;BME280;1095;50.992;6.798;2022-09-25T01:37:23;100673.84;;;13.18;100.00
2178;BME280;1095;50.992;6.798;2022-09-25T01:39:56;100674.66;;;13.19;100.00
2178;BME280;1095;50.992;6.798;2022-09-25T01:42:30;100673.03;;;13.18;100.00
2178;BME280;1095;50.992;6.798;2022-09-25T01:45:05;100668.25;;;13.13;100.00
2178;BME280;1095;50.992;6.798;2022-09-25T01:47:35;100677.94;;;13.13;100.00
2178;BME280;1095;50.992;6.798;2022-09-25T01:50:07;100666.44;;;13.14;100.00
2178;BME280;1095;50.992;6.798;2022-09-25T01:52:40;100665.13;;;13.10;100.00
2178;BME280;1095;50.992;6.798;2022-09-25T01:55:14;100681.38;;;13.13;100.00
2178;BME280;1095;50.992;6.798;2022-09-25T01:57:45;100672.03;;;13.11;100.00
2178;BME280;1095;50.992;6.798;2022-09-25T02:00:21;100663.50;;;13.09;100.00
2178;BME280;1095;50.992;6.798;2022-09-25T02:02:53;100670.72;;;13.07;100.00
2178;BME280;1095;50.992;6.798;2022-09-25T02:05:25;100670.72;;;13.07;100.00
2178;BME280;1095;50.992;6.798;2022-09-25T02:07:57;100662.88;;;12.99;100.00
2178;BME280;1095;50.992;6.798;2022-09-25T02:10:29;100674.69;;;13.03;100.00
2178;BME280;1095;50.992;6.798;2022-09-25T02:13:02;100676.50;;;13.02;100.00
2178;BME280;1095;50.992;6.798;2022-09-25T02:15:34;100672.06;;;13.03;100.00
2178;BME280;1095;50.992;6.798;2022-09-25T02:18:04;100669.44;;;13.03;100.00
2178;BME280;1095;50.992;6.798;2022-09-25T02:20:55;100671.41;;;13.01;100.00
2178;BME280;1095;50.992;6.798;2022-09-25T02:23:28;100676.03;;;12.99;100.00
2178;BME280;1095;50.992;6.798;2022-09-25T02:26:03;100672.09;;;12.94;100.00
2178;BME280;1095;50.992;6.798;2022-09-25T02:28:31;100677.69;;;12.91;100.00
2178;BME280;1095;50.992;6.798;2022-09-25T02:31:02;100672.44;;;12.91;100.00
2178;BME280;1095;50.992;6.798;2022-09-25T02:33:31;100682.59;;;12.94;100.00
2178;BME280;1095;50.992;6.798;2022-09-25T02:35:59;100678.16;;;12.95;100.00
2178;BME280;1095;50.992;6.798;2022-09-25T02:38:27;100674.41;;;12.89;100.00
2178;BME280;1095;50.992;6.798;2022-09-25T02:41:00;100677.34;;;12.94;100.00
2178;BME280;1095;50.992;6.798;2022-09-25T02:43:37;100683.63;;;12.85;100.00
2178;BME280;1095;50.992;6.798;2022-09-25T02:46:13;100687.88;;;12.86;100.00
2178;BME280;1095;50.992;6.798;2022-09-25T02:48:50;100690.16;;;12.89;100.00
2178;BME280;1095;50.992;6.798;2022-09-25T02:51:26;100680.97;;;12.93;100.00
2178;BME280;1095;50.992;6.798;2022-09-25T02:54:01;100679.81;;;12.88;100.00
2178;BME280;1095;50.992;6.798;2022-09-25T02:56:32;100681.63;;;12.87;100.00
2178;BME280;1095;50.992;6.798;2022-09-25T02:59:03;100683.91;;;12.90;100.00
2178;BME280;1095;50.992;6.798;2022-09-25T03:01:36;100680.34;;;12.83;100.00
2178;BME280;1095;50.992;6.798;2022-09-25T03:04:05;100679.50;;;12.83;100.00
2178;BME280;1095;50.992;6.798;2022-09-25T03:06:32;100669.50;;;12.78;100.00
2178;BME280;1095;50.992;6.798;2022-09-25T03:09:00;100676.13;;;12.74;100.00
2178;BME280;1095;50.992;6.798;2022-09-25T03:11:26;100673.19;;;12.69;100.00
2178;BME280;1095;50.992;6.798;2022-09-25T03:13:58;100681.38;;;12.66;100.00
2178;BME280;1095;50.992;6.798;2022-09-25T03:16:30;100683.03;;;12.67;100.00
2178;BME280;1095;50.992;6.798;2022-09-25T03:19:02;100684.34;;;12.71;100.00
2178;BME280;1095;50.992;6.798;2022-09-25T03:21:29;100686.47;;;12.68;100.00
2178;BME280;1095;50.992;6.798;2022-09-25T03:23:56;100683.19;;;12.66;100.00
2178;BME280;1095;50.992;6.798;2022-09-25T03:26:23;100689.59;;;12.63;100.00
2178;BME280;1095;50.992;6.798;2022-09-25T03:28:50;100687.97;;;12.62;100.00
2178;BME280;1095;50.992;6.798;2022-09-25T03:31:16;100691.41;;;12.62;100.00
2178;BME280;1095;50.992;6.798;2022-09-25T03:33:43;100686.97;;;12.63;100.00
2178;BME280;1095;50.992;6.798;2022-09-25T03:36:13;100690.25;;;12.65;100.00
2178;BME280;1095;50.992;6.798;2022-09-25T03:38:41;100688.63;;;12.64;100.00
2178;BME280;1095;50.992;6.798;2022-09-25T03:41:13;100699.63;;;12.59;100.00
2178;BME280;1095;50.992;6.798;2022-09-25T03:43:44;100690.44;;;12.47;100.00
2178;BME280;1095;50.992;6.798;2022-09-25T03:46:13;100691.44;;;12.38;100.00
2178;BME280;1095;50.992;6.798;2022-09-25T03:48:40;100694.22;;;12.37;100.00
2178;BME280;1095;50.992;6.798;2022-09-25T03:51:08;100697.22;;;12.25;100.00
2178;BME280;1095;50.992;6.798;2022-09-25T03:53:36;100688.69;;;12.23;100.00
2178;BME280;1095;50.992;6.798;2022-09-25T03:56:04;100690.50;;;12.23;100.00
2178;BME280;1095;50.992;6.798;2022-09-25T03:58:31;100698.34;;;12.23;100.00
2178;BME280;1095;50.992;6.798;2022-09-25T04:00:58;100697.53;;;12.22;100.00
2178;BME280;1095;50.992;6.798;2022-09-25T04:03:26;100704.25;;;12.25;100.00
2178;BME280;1095;50.992;6.798;2022-09-25T04:05:54;100689.34;;;12.17;100.00
2178;BME280;1095;50.992;6.798;2022-09-25T04:08:21;100691.47;;;12.22;100.00
2178;BME280;1095;50.992;6.798;2022-09-25T04:10:52;100693.28;;;12.21;100.00
2178;BME280;1095;50.992;6.798;2022-09-25T04:13:20;100690.97;;;12.18;100.00
2178;BME280;1095;50.992;6.798;2022-09-25T04:15:47;100701.81;;;12.23;100.00
2178;BME280;1095;50.992;6.798;2022-09-25T04:18:13;100698.84;;;12.26;100.00
2178;BME280;1095;50.992;6.798;2022-09-25T04:20:40;100702.13;;;12.28;100.00
2178;BME280;1095;50.992;6.798;2022-09-25T04:23:07;100698.69;;;12.28;100.00
2178;BME280;1095;50.992;6.798;2022-09-25T04:25:34;100696.69;;;12.30;100.00
2178;BME280;1095;50.992;6.798;2022-09-25T04:28:02;100691.31;;;12.23;100.00
2178;BME280;1095;50.992;6.798;2022-09-25T04:33:09;100691.63;;;12.28;100.00
2178;BME280;1095;50.992;6.798;2022-09-25T04:35:53;100677.38;;;12.15;100.00
2178;BME280;1095;50.992;6.798;2022-09-25T04:38:29;100689.34;;;12.25;100.00
2178;BME280;1095;50.992;6.798;2022-09-25T04:41:03;100698.84;;;12.26;100.00
2178;BME280;1095;50.992;6.798;2022-09-25T04:43:33;100683.44;;;12.15;100.00
2178;BME280;1095;50.992;6.798;2022-09-25T04:46:08;100699.50;;;12.20;100.00
2178;BME280;1095;50.992;6.798;2022-09-25T04:48:55;100696.72;;;12.14;100.00
2178;BME280;1095;50.992;6.798;2022-09-25T04:51:36;100681.78;;;12.06;100.00
2178;BME280;1095;50.992;6.798;2022-09-25T04:54:30;100699.50;;;12.20;100.00
2178;BME280;1095;50.992;6.798;2022-09-25T04:57:14;100701.81;;;12.15;100.00
2178;BME280;1095;50.992;6.798;2022-09-25T04:59:42;100701.16;;;12.21;100.00
2178;BME280;1095;50.992;6.798;2022-09-25T05:02:09;100706.72;;;12.18;100.00
2178;BME280;1095;50.992;6.798;2022-09-25T05:04:36;100707.38;;;12.20;100.00
2178;BME280;1095;50.992;6.798;2022-09-25T05:07:03;100700.66;;;12.18;100.00
2178;BME280;1095;50.992;6.798;2022-09-25T05:09:30;100711.97;;;12.18;100.00
2178;BME280;1095;50.992;6.798;2022-09-25T05:11:57;100702.47;;;12.17;100.00
2178;BME280;1095;50.992;6.798;2022-09-25T05:14:28;100701.97;;;12.06;100.00
2178;BME280;1095;50.992;6.798;2022-09-25T05:16:59;100697.69;;;11.96;100.00
2178;BME280;1095;50.992;6.798;2022-09-25T05:19:26;100712.28;;;11.99;100.00
2178;BME280;1095;50.992;6.798;2022-09-25T05:21:54;100702.44;;;11.93;100.00
2178;BME280;1095;50.992;6.798;2022-09-25T05:24:23;100713.75;;;11.93;100.00
2178;BME280;1095;50.992;6.798;2022-09-25T05:27:03;100708.31;;;11.87;100.00
2178;BME280;1095;50.992;6.798;2022-09-25T05:29:33;100712.78;;;11.78;100.00
2178;BME280;1095;50.992;6.798;2022-09-25T05:32:01;100715.38;;;11.78;100.00
2178;BME280;1095;50.992;6.798;2022-09-25T05:34:28;100686.81;;;11.59;100.00
2178;BME280;1095;50.992;6.798;2022-09-25T05:36:57;100705.84;;;11.69;100.00
2178;BME280;1095;50.992;6.798;2022-09-25T05:39:37;100702.22;;;11.62;100.00
2178;BME280;1095;50.992;6.798;2022-09-25T05:42:13;100710.56;;;11.66;100.00
2178;BME280;1095;50.992;6.798;2022-09-25T05:44:46;100723.03;;;11.63;100.00
2178;BME280;1095;50.992;6.798;2022-09-25T05:47:14;100713.53;;;11.62;100.00
2178;BME280;1095;50.992;6.798;2022-09-25T05:49:42;100701.88;;;11.57;100.00
2178;BME280;1095;50.992;6.798;2022-09-25T05:52:09;100704.66;;;11.55;100.00
2178;BME280;1095;50.992;6.798;2022-09-25T05:54:36;100703.97;;;11.45;100.00
2178;BME280;1095;50.992;6.798;2022-09-25T05:57:03;100703.16;;;11.45;100.00
2178;BME280;1095;50.992;6.798;2022-09-25T05:59:29;100715.91;;;11.40;100.00
2178;BME280;1095;50.992;6.798;2022-09-25T06:01:56;100721.81;;;11.34;100.00
2178;BME280;1095;50.992;6.798;2022-09-25T06:04:24;100713.44;;;11.30;100.00
2178;BME280;1095;50.992;6.798;2022-09-25T06:06:51;100719.97;;;11.26;100.00
2178;BME280;1095;50.992;6.798;2022-09-25T06:09:21;100721.25;;;11.22;100.00
2178;BME280;1095;50.992;6.798;2022-09-25T06:11:49;100724.19;;;11.19;100.00
2178;BME280;1095;50.992;6.798;2022-09-25T06:14:16;100727.28;;;11.14;100.00
2178;BME280;1095;50.992;6.798;2022-09-25T06:23:21;100721.19;;;11.06;100.00
2178;BME280;1095;50.992;6.798;2022-09-25T06:29:07;100740.84;;;11.10;100.00
2178;BME280;1095;50.992;6.798;2022-09-25T06:31:58;100729.19;;;11.04;100.00
2178;BME280;1095;50.992;6.798;2022-09-25T06:37:37;100747.94;;;11.17;100.00
2178;BME280;1095;50.992;6.798;2022-09-25T06:40:07;100739.22;;;11.09;100.00
2178;BME280;1095;50.992;6.798;2022-09-25T06:42:49;100746.09;;;11.10;100.00
2178;BME280;1095;50.992;6.798;2022-09-25T06:45:38;100737.56;;;11.08;100.00
2178;BME280;1095;50.992;6.798;2022-09-25T06:48:20;100747.41;;;11.14;100.00
2178;BME280;1095;50.992;6.798;2022-09-25T06:50:56;100748.75;;;11.18;100.00
2178;BME280;1095;50.992;6.798;2022-09-25T06:53:57;100748.13;;;11.24;100.00
2178;BME280;1095;50.992;6.798;2022-09-25T06:56:25;100762.59;;;11.44;100.00
2178;BME280;1095;50.992;6.798;2022-09-25T06:58:52;100758.00;;;11.80;100.00
2178;BME280;1095;50.992;6.798;2022-09-25T07:01:19;100754.25;;;12.40;100.00
2178;BME280;1095;50.992;6.798;2022-09-25T07:03:45;100760.31;;;12.73;99.22
2178;BME280;1095;50.992;6.798;2022-09-25T07:06:13;100761.22;;;13.04;98.05
2178;BME280;1095;50.992;6.798;2022-09-25T07:08:43;100768.38;;;13.66;95.04
2178;BME280;1095;50.992;6.798;2022-09-25T07:11:14;100765.19;;;14.01;90.47
2178;BME280;1095;50.992;6.798;2022-09-25T07:13:42;100763.03;;;14.65;88.66
2178;BME280;1095;50.992;6.798;2022-09-25T07:16:12;100776.16;;;15.32;85.24
2178;BME280;1095;50.992;6.798;2022-09-25T07:18:41;100769.19;;;15.75;82.88
2178;BME280;1095;50.992;6.798;2022-09-25T07:21:22;100777.25;;;16.52;80.50
2178;BME280;1095;50.992;6.798;2022-09-25T07:23:56;100779.22;;;17.34;77.40
2178;BME280;1095;50.992;6.798;2022-09-25T07:26:31;100780.03;;;17.82;74.96
2178;BME280;1095;50.992;6.798;2022-09-25T07:29:01;100772.84;;;17.70;74.07
2178;BME280;1095;50.992;6.798;2022-09-25T07:31:33;100770.22;;;17.29;74.30
2178;BME280;1095;50.992;6.798;2022-09-25T07:34:05;100761.78;;;16.49;76.24
2178;BME280;1095;50.992;6.798;2022-09-25T07:36:34;100758.16;;;16.08;78.00
2178;BME280;1095;50.992;6.798;2022-09-25T07:39:13;100754.97;;;15.91;78.09
2178;BME280;1095;50.992;6.798;2022-09-25T07:41:56;100743.34;;;15.35;79.64
2178;BME280;1095;50.992;6.798;2022-09-25T07:44:34;100751.84;;;15.66;79.65
2178;BME280;1095;50.992;6.798;2022-09-25T07:47:27;100757.44;;;15.56;79.20
2178;BME280;1095;50.992;6.798;2022-09-25T07:50:02;100745.38;;;15.69;78.46
2178;BME280;1095;50.992;6.798;2022-09-25T07:52:29;100744.06;;;15.14;79.08
2178;BME280;1095;50.992;6.798;2022-09-25T07:54:56;100745.34;;;15.18;78.18
2178;BME280;1095;50.992;6.798;2022-09-25T07:57:23;100757.25;;;14.84;79.70
2178;BME280;1095;50.992;6.798;2022-09-25T07:59:55;100738.50;;;14.50;80.51
2178;BME280;1095;50.992;6.798;2022-09-25T08:02:24;100747.16;;;14.36;81.37
2178;BME280;1095;50.992;6.798;2022-09-25T08:04:51;100753.50;;;14.49;81.49
2178;BME280;1095;50.992;6.798;2022-09-25T08:07:26;100740.69;;;14.23;81.24
2178;BME280;1095;50.992;6.798;2022-09-25T08:09:53;100745.06;;;14.31;81.64
2178;BME280;1095;50.992;6.798;2022-09-25T08:12:20;100735.59;;;14.22;81.61
2178;BME280;1095;50.992;6.798;2022-09-25T08:14:48;100729.09;;;14.70;80.02
2178;BME280;1095;50.992;6.798;2022-09-25T08:17:18;100739.28;;;14.88;78.71
2178;BME280;1095;50.992;6.798;2022-09-25T08:19:46;100763.25;;;15.88;77.56
2178;BME280;1095;50.992;6.798;2022-09-25T08:22:15;100755.41;;;15.95;76.59
2178;BME280;1095;50.992;6.798;2022-09-25T08:24:43;100743.78;;;15.38;77.89
2178;BME280;1095;50.992;6.798;2022-09-25T08:27:11;100761.25;;;15.39;80.13
2178;BME280;1095;50.992;6.798;2022-09-25T08:29:53;100741.53;;;15.20;79.85
2178;BME280;1095;50.992;6.798;2022-09-25T08:32:21;100759.69;;;15.96;78.26
2178;BME280;1095;50.992;6.798;2022-09-25T08:34:52;100781.06;;;16.01;78.08
2178;BME280;1095;50.992;6.798;2022-09-25T08:37:21;100739.28;;;15.68;78.40
2178;BME280;1095;50.992;6.798;2022-09-25T08:39:54;100755.50;;;16.08;76.86
2178;BME280;1095;50.992;6.798;2022-09-25T08:42:26;100750.66;;;16.11;75.77
2178;BME280;1095;50.992;6.798;2022-09-25T08:44:55;100754.56;;;15.73;75.45
2178;BME280;1095;50.992;6.798;2022-09-25T08:47:38;100765.38;;;15.78;76.78
2178;BME280;1095;50.992;6.798;2022-09-25T08:50:38;100756.13;;;15.52;76.27
2178;BME280;1095;50.992;6.798;2022-09-25T08:53:13;100762.75;;;15.63;75.72
2178;BME280;1095;50.992;6.798;2022-09-25T08:55:41;100762.16;;;15.17;76.96
2178;BME280;1095;50.992;6.798;2022-09-25T08:58:30;100763.63;;;15.34;76.90
2178;BME280;1095;50.992;6.798;2022-09-25T09:01:02;100765.41;;;15.99;76.10
2178;BME280;1095;50.992;6.798;2022-09-25T09:03:42;100758.78;;;15.52;75.61
2178;BME280;1095;50.992;6.798;2022-09-25T09:06:13;100760.69;;;15.29;77.27
2178;BME280;1095;50.992;6.798;2022-09-25T09:08:42;100770.88;;;15.32;79.38
2178;BME280;1095;50.992;6.798;2022-09-25T09:11:12;100769.47;;;15.80;76.65
2178;BME280;1095;50.992;6.798;2022-09-25T09:13:44;100754.22;;;15.97;74.90
2178;BME280;1095;50.992;6.798;2022-09-25T09:16:22;100755.38;;;16.16;73.68
2178;BME280;1095;50.992;6.798;2022-09-25T09:19:00;100772.03;;;16.38;73.20
2178;BME280;1095;50.992;6.798;2022-09-25T09:21:34;100774.81;;;16.30;72.87
2178;BME280;1095;50.992;6.798;2022-09-25T09:24:09;100774.06;;;16.36;72.25
2178;BME280;1095;50.992;6.798;2022-09-25T09:26:54;100757.97;;;16.58;72.26
2178;BME280;1095;50.992;6.798;2022-09-25T09:29:42;100766.47;;;17.10;70.88
2178;BME280;1095;50.992;6.798;2022-09-25T09:32:24;100757.09;;;17.01;69.58
2178;BME280;1095;50.992;6.798;2022-09-25T09:35:06;100752.91;;;16.85;69.16
2178;BME280;1095;50.992;6.798;2022-09-25T09:37:45;100761.34;;;16.24;71.99
2178;BME280;1095;50.992;6.798;2022-09-25T09:40:42;100763.13;;;16.39;72.40
2178;BME280;1095;50.992;6.798;2022-09-25T09:43:18;100761.34;;;16.24;71.14
2178;BME280;1095;50.992;6.798;2022-09-25T09:45:54;100752.25;;;16.27;72.03
2178;BME280;1095;50.992;6.798;2022-09-25T09:48:29;100757.09;;;16.02;71.91
2178;BME280;1095;50.992;6.798;2022-09-25T09:51:07;100746.19;;;15.69;72.56
2178;BME280;1095;50.992;6.798;2022-09-25T09:53:38;100744.78;;;15.22;72.77
2178;BME280;1095;50.992;6.798;2022-09-25T09:56:10;100737.38;;;15.11;73.26
2178;BME280;1095;50.992;6.798;2022-09-25T09:58:43;100755.13;;;15.53;72.31
2178;BME280;1095;50.992;6.798;2022-09-25T10:01:12;100739.94;;;15.91;71.10
2178;BME280;1095;50.992;6.798;2022-09-25T10:03:40;100745.97;;;16.28;70.97
2178;BME280;1095;50.992;6.798;2022-09-25T10:06:15;100736.72;;;16.39;70.35
2178;BME280;1095;50.992;6.798;2022-09-25T10:08:44;100741.44;;;16.71;68.34
2178;BME280;1095;50.992;6.798;2022-09-25T10:11:15;100717.03;;;16.69;66.58
2178;BME280;1095;50.992;6.798;2022-09-25T10:13:43;100719.59;;;16.35;65.36
2178;BME280;1095;50.992;6.798;2022-09-25T10:16:13;100720.38;;;16.29;67.58
2178;BME280;1095;50.992;6.798;2022-09-25T10:18:44;100724.41;;;16.24;67.64
2178;BME280;1095;50.992;6.798;2022-09-25T10:21:15;100722.91;;;15.94;68.13
2178;BME280;1095;50.992;6.798;2022-09-25T10:23:47;100728.44;;;15.78;69.81
2178;BME280;1095;50.992;6.798;2022-09-25T10:26:26;100730.72;;;16.02;68.47
2178;BME280;1095;50.992;6.798;2022-09-25T10:28:57;100737.28;;;16.13;63.91
2178;BME280;1095;50.992;6.798;2022-09-25T10:31:27;100731.34;;;16.04;63.79
2178;BME280;1095;50.992;6.798;2022-09-25T10:33:59;100719.38;;;16.08;62.78
2178;BME280;1095;50.992;6.798;2022-09-25T10:36:37;100725.13;;;16.40;62.48
2178;BME280;1095;50.992;6.798;2022-09-25T10:39:26;100718.34;;;16.31;63.53
2178;BME280;1095;50.992;6.798;2022-09-25T10:41:54;100719.13;;;16.80;63.59
2178;BME280;1095;50.992;6.798;2022-09-25T10:44:28;100722.94;;;16.71;64.33
2178;BME280;1095;50.992;6.798;2022-09-25T10:47:28;100717.31;;;16.81;64.16
2178;BME280;1095;50.992;6.798;2022-09-25T10:50:15;100715.59;;;16.67;63.15
2178;BME280;1095;50.992;6.798;2022-09-25T10:52:46;100716.81;;;16.99;62.63
2178;BME280;1095;50.992;6.798;2022-09-25T10:55:23;100716.38;;;17.02;62.25
2178;BME280;1095;50.992;6.798;2022-09-25T10:57:56;100718.16;;;16.60;61.01
2178;BME280;1095;50.992;6.798;2022-09-25T11:00:25;100714.00;;;16.44;62.35
2178;BME280;1095;50.992;6.798;2022-09-25T11:02:54;100726.47;;;16.85;62.12
2178;BME280;1095;50.992;6.798;2022-09-25T11:05:26;100725.75;;;16.98;62.64
2178;BME280;1095;50.992;6.798;2022-09-25T11:07:56;100720.97;;;17.21;61.53
2178;BME280;1095;50.992;6.798;2022-09-25T11:10:27;100711.56;;;17.12;60.15
2178;BME280;1095;50.992;6.798;2022-09-25T11:12:55;100712.72;;;17.03;60.02
2178;BME280;1095;50.992;6.798;2022-09-25T11:15:27;100701.66;;;16.79;60.61
2178;BME280;1095;50.992;6.798;2022-09-25T11:17:55;100710.19;;;16.81;61.17
2178;BME280;1095;50.992;6.798;2022-09-25T11:20:26;100702.09;;;16.62;61.06
2178;BME280;1095;50.992;6.798;2022-09-25T11:23:09;100712.22;;;16.79;60.48
2178;BME280;1095;50.992;6.798;2022-09-25T11:25:43;100717.69;;;17.19;61.87
2178;BME280;1095;50.992;6.798;2022-09-25T11:28:25;100714.03;;;17.20;62.23
2178;BME280;1095;50.992;6.798;2022-09-25T11:30:59;100709.28;;;17.02;62.62
2178;BME280;1095;50.992;6.798;2022-09-25T11:33:35;100712.84;;;16.81;62.16
2178;BME280;1095;50.992;6.798;2022-09-25T11:36:10;100709.81;;;16.84;62.06
2178;BME280;1095;50.992;6.798;2022-09-25T11:38:45;100711.00;;;17.23;60.29
2178;BME280;1095;50.992;6.798;2022-09-25T11:41:36;100706.19;;;17.40;59.86
2178;BME280;1095;50.992;6.798;2022-09-25T11:44:18;100709.47;;;17.55;60.51
2178;BME280;1095;50.992;6.798;2022-09-25T11:46:54;100702.16;;;16.96;60.46
2178;BME280;1095;50.992;6.798;2022-09-25T11:49:27;100703.78;;;17.04;60.30
2178;BME280;1095;50.992;6.798;2022-09-25T11:52:18;100713.97;;;17.48;60.10
2178;BME280;1095;50.992;6.798;2022-09-25T11:55:16;100699.06;;;17.40;58.85
2178;BME280;1095;50.992;6.798;2022-09-25T11:57:54;100703.00;;;17.64;58.30
2178;BME280;1095;50.992;6.798;2022-09-25T12:00:35;100692.84;;;17.68;58.31
2178;BME280;1095;50.992;6.798;2022-09-25T12:03:23;100700.72;;;17.54;58.02
2178;BME280;1095;50.992;6.798;2022-09-25T12:06:11;100688.13;;;17.63;60.83
2178;BME280;1095;50.992;6.798;2022-09-25T12:08:54;100694.94;;;17.85;60.58
2178;BME280;1095;50.992;6.798;2022-09-25T12:11:30;100672.91;;;17.78;59.43
2178;BME280;1095;50.992;6.798;2022-09-25T12:14:10;100697.56;;;18.05;59.25
2178;BME280;1095;50.992;6.798;2022-09-25T12:16:45;100670.06;;;18.00;58.74
2178;BME280;1095;50.992;6.798;2022-09-25T12:19:24;100675.97;;;18.21;56.71
2178;BME280;1095;50.992;6.798;2022-09-25T12:21:59;100666.19;;;18.42;57.59
2178;BME280;1095;50.992;6.798;2022-09-25T12:24:36;100675.53;;;18.71;56.44
2178;BME280;1095;50.992;6.798;2022-09-25T12:27:15;100662.94;;;18.00;56.17
2178;BME280;1095;50.992;6.798;2022-09-25T12:29:58;100659.06;;;17.70;56.51
2178;BME280;1095;50.992;6.798;2022-09-25T12:32:45;100672.03;;;17.45;57.23
2178;BME280;1095;50.992;6.798;2022-09-25T12:35:27;100668.78;;;17.56;56.63
2178;BME280;1095;50.992;6.798;2022-09-25T12:38:01;100659.91;;;17.90;56.41
2178;BME280;1095;50.992;6.798;2022-09-25T12:40:33;100653.97;;;18.28;55.16
2178;BME280;1095;50.992;6.798;2022-09-25T12:43:05;100651.53;;;18.19;55.09
2178;BME280;1095;50.992;6.798;2022-09-25T12:45:36;100650.50;;;18.34;54.81
2178;BME280;1095;50.992;6.798;2022-09-25T12:48:09;100657.59;;;18.66;56.13
2178;BME280;1095;50.992;6.798;2022-09-25T12:50:45;100659.69;;;18.38;56.75
2178;BME280;1095;50.992;6.798;2022-09-25T12:53:26;100646.03;;;18.01;57.48
2178;BME280;1095;50.992;6.798;2022-09-25T12:55:59;100632.41;;;17.91;58.60
2178;BME280;1095;50.992;6.798;2022-09-25T12:59:01;100635.25;;;17.83;58.43
2178;BME280;1095;50.992;6.798;2022-09-25T13:01:36;100629.97;;;17.83;58.19
2178;BME280;1095;50.992;6.798;2022-09-25T13:04:22;100640.88;;;16.79;58.53
2178;BME280;1095;50.992;6.798;2022-09-25T13:07:05;100640.88;;;16.79;58.98
2178;BME280;1095;50.992;6.798;2022-09-25T13:09:40;100628.84;;;16.77;59.55
2178;BME280;1095;50.992;6.798;2022-09-25T13:12:14;100628.03;;;16.42;59.51
2178;BME280;1095;50.992;6.798;2022-09-25T13:14:48;100610.41;;;16.49;57.72
2178;BME280;1095;50.992;6.798;2022-09-25T13:17:18;100611.03;;;16.57;56.71
2178;BME280;1095;50.992;6.798;2022-09-25T13:19:45;100624.28;;;16.99;54.54
2178;BME280;1095;50.992;6.798;2022-09-25T13:22:16;100611.88;;;16.99;51.47
2178;BME280;1095;50.992;6.798;2022-09-25T13:24:47;100618.69;;;17.35;51.99
2178;BME280;1095;50.992;6.798;2022-09-25T13:27:18;100597.59;;;17.68;52.51
2178;BME280;1095;50.992;6.798;2022-09-25T13:29:54;100607.13;;;18.08;54.06
2178;BME280;1095;50.992;6.798;2022-09-25T13:32:23;100607.53;;;18.18;54.40
2178;BME280;1095;50.992;6.798;2022-09-25T13:34:55;100607.25;;;18.46;54.85
2178;BME280;1095;50.992;6.798;2022-09-25T13:37:26;100588.75;;;18.40;55.78
2178;BME280;1095;50.992;6.798;2022-09-25T13:39:53;100593.28;;;18.06;56.61
2178;BME280;1095;50.992;6.798;2022-09-25T13:42:40;100596.56;;;17.69;56.56
2178;BME280;1095;50.992;6.798;2022-09-25T13:45:30;100589.75;;;17.13;57.43
2178;BME280;1095;50.992;6.798;2022-09-25T13:48:08;100595.19;;;17.05;58.74
2178;BME280;1095;50.992;6.798;2022-09-25T13:50:41;100596.84;;;17.06;58.58
2178;BME280;1095;50.992;6.798;2022-09-25T13:56:20;100594.44;;;17.18;58.12